Time;durP1;ratioP1;P1;durP2;ratioP2;P2;SDS_P1;SDS_P2;PMS_P1;PMS_P2;Temp;Humidity;BMP_temperature;BMP_pressure;BME280_temperature;BME280_humidity;BME280_pressure;Samples;Min_cycle;Max_cycle;Signal;HPM_P1;HPM_P2
2023/05/06 00:00:19;;;;;;;30.97;28.67;;;;;;;;;;5057139;28;20503;-82
2023/05/06 00:02:46;;;;;;;30.40;28.20;;;;;;;;;;5056687;28;20939;-82
2023/05/06 00:05:17;;;;;;;28.70;26.60;;;;;;;;;;5057013;28;20410;-82
2023/05/06 00:07:44;;;;;;;28.93;26.70;;;;;;;;;;5056893;28;20440;-81
2023/05/06 00:10:11;;;;;;;30.07;27.77;;;;;;;;;;5056871;28;20519;-82
2023/05/06 00:12:38;;;;;;;29.17;26.97;;;;;;;;;;5057701;28;20459;-82
2023/05/06 00:15:07;;;;;;;29.17;26.60;;;;;;;;;;5056816;28;20463;-82
2023/05/06 00:17:34;;;;;;;30.07;27.67;;;;;;;;;;5057352;28;20495;-82
2023/05/06 00:20:02;;;;;;;30.17;27.67;;;;;;;;;;5056814;28;20437;-82
2023/05/06 00:22:29;;;;;;;30.47;28.17;;;;;;;;;;5057368;28;20438;-82
2023/05/06 00:24:56;;;;;;;29.67;27.57;;;;;;;;;;5056258;28;21040;-82
2023/05/06 00:27:23;;;;;;;29.90;27.73;;;;;;;;;;5056384;28;20527;-83
2023/05/06 00:29:50;;;;;;;31.03;28.73;;;;;;;;;;5056965;28;20482;-82
2023/05/06 00:32:18;;;;;;;32.43;29.93;;;;;;;;;;5057020;28;20475;-82
2023/05/06 00:34:45;;;;;;;29.10;27.07;;;;;;;;;;5056519;28;20524;-82
2023/05/06 00:37:12;;;;;;;28.03;25.93;;;;;;;;;;5056762;28;20431;-82
2023/05/06 00:39:40;;;;;;;31.13;28.77;;;;;;;;;;5057005;28;20449;-82
2023/05/06 00:42:06;;;;;;;28.17;26.07;;;;;;;;;;5057513;28;20485;-82
2023/05/06 00:44:34;;;;;;;31.43;29.10;;;;;;;;;;5056592;28;20820;-81
2023/05/06 00:47:01;;;;;;;30.47;28.10;;;;;;;;;;5056447;28;20421;-82
2023/05/06 00:49:30;;;;;;;30.27;28.07;;;;;;;;;;5056833;28;20466;-81
2023/05/06 00:51:57;;;;;;;31.07;28.73;;;;;;;;;;5057154;28;20486;-82
2023/05/06 00:54:25;;;;;;;31.13;28.63;;;;;;;;;;5056824;28;20512;-82
2023/05/06 00:56:52;;;;;;;29.73;27.73;;;;;;;;;;5056154;28;20496;-81
2023/05/06 00:59:20;;;;;;;31.03;28.70;;;;;;;;;;5056909;28;20496;-82
2023/05/06 01:01:47;;;;;;;31.97;29.37;;;;;;;;;;5056380;28;20774;-82
2023/05/06 01:04:14;;;;;;;31.40;29.00;;;;;;;;;;5056456;28;20463;-81
2023/05/06 01:06:46;;;;;;;32.00;29.50;;;;;;;;;;5056223;28;20466;-82
2023/05/06 01:09:19;;;;;;;31.50;29.00;;;;;;;;;;5056757;28;20474;-82
2023/05/06 01:12:08;;;;;;;33.03;30.43;;;;;;;;;;5056395;28;20449;-81
2023/05/06 01:14:40;;;;;;;32.37;29.67;;;;;;;;;;5055132;28;20461;-81
2023/05/06 01:17:09;;;;;;;32.13;29.53;;;;;;;;;;5055451;28;20467;-81
2023/05/06 01:19:42;;;;;;;34.13;31.20;;;;;;;;;;5056290;28;20832;-82
2023/05/06 01:22:12;;;;;;;33.57;30.83;;;;;;;;;;5056162;28;20430;-82
2023/05/06 01:24:41;;;;;;;32.80;30.43;;;;;;;;;;5056565;28;20504;-82
2023/05/06 01:27:09;;;;;;;31.77;29.40;;;;;;;;;;5055556;28;20517;-81
2023/05/06 01:29:36;;;;;;;32.07;29.57;;;;;;;;;;5056191;28;20973;-82
2023/05/06 01:32:09;;;;;;;33.00;30.40;;;;;;;;;;5055828;28;20469;-82
2023/05/06 01:34:41;;;;;;;34.40;31.70;;;;;;;;;;5056120;28;20792;-83
2023/05/06 01:37:11;;;;;;;35.47;32.43;;;;;;;;;;5056874;28;20474;-81
2023/05/06 01:39:40;;;;;;;34.30;31.50;;;;;;;;;;5057913;28;20557;-82
2023/05/06 01:42:10;;;;;;;33.23;30.63;;;;;;;;;;5059357;28;20449;-81
2023/05/06 01:44:37;;;;;;;33.50;30.90;;;;;;;;;;5058759;28;20481;-81
2023/05/06 01:47:06;;;;;;;31.97;29.57;;;;;;;;;;5056787;28;20470;-81
2023/05/06 01:49:33;;;;;;;32.80;30.40;;;;;;;;;;5057368;28;21254;-82
2023/05/06 01:52:00;;;;;;;34.27;31.27;;;;;;;;;;5057394;28;20478;-82
2023/05/06 01:54:27;;;;;;;32.77;30.27;;;;;;;;;;5057645;28;20914;-82
2023/05/06 01:56:54;;;;;;;35.03;32.33;;;;;;;;;;5056974;28;20446;-82
2023/05/06 01:59:22;;;;;;;33.13;30.33;;;;;;;;;;5056981;28;20456;-81
2023/05/06 02:01:50;;;;;;;34.53;31.53;;;;;;;;;;5056540;28;20845;-81
2023/05/06 02:04:16;;;;;;;32.93;30.33;;;;;;;;;;5059100;28;20417;-82
2023/05/06 02:06:43;;;;;;;34.97;32.00;;;;;;;;;;5058740;28;20446;-82
2023/05/06 02:09:10;;;;;;;34.57;31.47;;;;;;;;;;5058065;28;21019;-82
2023/05/06 02:11:37;;;;;;;34.43;31.40;;;;;;;;;;5058188;28;20453;-80
2023/05/06 02:14:04;;;;;;;34.27;31.40;;;;;;;;;;5060700;28;20544;-81
2023/05/06 02:16:33;;;;;;;37.03;33.93;;;;;;;;;;5060791;28;20910;-81
2023/05/06 02:19:00;;;;;;;33.20;30.30;;;;;;;;;;5060610;28;20492;-81
2023/05/06 02:21:28;;;;;;;32.03;29.50;;;;;;;;;;5060539;28;20412;-82
2023/05/06 02:23:55;;;;;;;33.40;30.60;;;;;;;;;;5060259;28;20446;-82
2023/05/06 02:26:22;;;;;;;32.77;30.17;;;;;;;;;;5060176;28;20852;-81
2023/05/06 02:28:49;;;;;;;35.33;32.33;;;;;;;;;;5060430;28;20445;-81
2023/05/06 02:31:16;;;;;;;34.20;31.40;;;;;;;;;;5060040;28;20456;-80
2023/05/06 02:33:45;;;;;;;34.57;31.77;;;;;;;;;;5059219;28;20501;-81
2023/05/06 02:36:12;;;;;;;34.10;31.10;;;;;;;;;;5059125;28;21309;-81
2023/05/06 02:38:40;;;;;;;32.83;29.90;;;;;;;;;;5060152;28;20454;-81
2023/05/06 02:41:07;;;;;;;34.47;31.33;;;;;;;;;;5060275;28;20500;-81
2023/05/06 02:43:34;;;;;;;35.40;32.30;;;;;;;;;;5059681;28;20474;-82
2023/05/06 02:46:00;;;;;;;34.90;32.13;;;;;;;;;;5059390;28;20429;-81
2023/05/06 02:48:28;;;;;;;33.73;30.60;;;;;;;;;;5059679;28;20450;-81
2023/05/06 02:50:56;;;;;;;36.20;33.00;;;;;;;;;;5059624;28;20478;-81
2023/05/06 02:53:23;;;;;;;35.13;31.90;;;;;;;;;;5059221;28;20456;-81
2023/05/06 02:55:50;;;;;;;34.97;31.87;;;;;;;;;;5059528;28;20480;-81
2023/05/06 02:58:17;;;;;;;35.10;31.60;;;;;;;;;;5059229;28;20435;-81
2023/05/06 03:00:44;;;;;;;43.60;32.87;;;;;;;;;;5058171;28;20980;-82
2023/05/06 03:03:11;;;;;;;53.47;31.90;;;;;;;;;;5059718;28;20437;-81
2023/05/06 03:05:38;;;;;;;33.87;30.30;;;;;;;;;;5059530;28;20475;-80
2023/05/06 03:08:06;;;;;;;43.57;30.53;;;;;;;;;;5059962;28;20909;-81
2023/05/06 03:10:33;;;;;;;55.20;31.80;;;;;;;;;;5058942;28;20503;-80
2023/05/06 03:13:00;;;;;;;67.57;32.37;;;;;;;;;;5060152;28;20459;-81
2023/05/06 03:15:27;;;;;;;46.37;30.90;;;;;;;;;;5058701;28;20520;-80
2023/05/06 03:17:55;;;;;;;36.87;33.00;;;;;;;;;;5059748;28;20520;-82
2023/05/06 03:20:22;;;;;;;47.40;32.77;;;;;;;;;;5060060;28;20553;-81
2023/05/06 03:22:49;;;;;;;47.60;32.17;;;;;;;;;;5059111;28;20451;-82
2023/05/06 03:25:18;;;;;;;68.10;30.53;;;;;;;;;;5058327;28;20557;-81
2023/05/06 03:27:45;;;;;;;39.30;32.13;;;;;;;;;;5059293;28;20773;-83
2023/05/06 03:30:12;;;;;;;48.37;33.67;;;;;;;;;;5058758;28;20481;-80
2023/05/06 03:32:39;;;;;;;40.27;33.47;;;;;;;;;;5058859;28;21056;-83
2023/05/06 03:35:07;;;;;;;38.03;33.50;;;;;;;;;;5058868;28;20467;-81
2023/05/06 03:37:34;;;;;;;47.97;33.80;;;;;;;;;;5058391;28;20814;-81
2023/05/06 03:40:03;;;;;;;43.80;32.87;;;;;;;;;;5058574;28;20484;-81
2023/05/06 03:42:31;;;;;;;59.17;30.73;;;;;;;;;;5059511;28;20481;-81
2023/05/06 03:44:58;;;;;;;38.07;32.40;;;;;;;;;;5057987;28;20422;-82
2023/05/06 03:47:26;;;;;;;44.40;31.83;;;;;;;;;;5060644;28;20414;-80
2023/05/06 03:49:54;;;;;;;74.23;31.47;;;;;;;;;;5074730;28;20465;-80
2023/05/06 03:52:21;;;;;;;60.00;30.10;;;;;;;;;;5074701;28;20449;-81
2023/05/06 03:54:48;;;;;;;58.57;32.27;;;;;;;;;;5070342;28;20465;-84
2023/05/06 03:57:15;;;;;;;96.10;31.33;;;;;;;;;;5058417;28;20436;-81
2023/05/06 03:59:43;;;;;;;65.33;33.37;;;;;;;;;;5058868;28;20437;-82
2023/05/06 04:02:10;;;;;;;63.40;29.90;;;;;;;;;;5059448;28;20473;-81
2023/05/06 04:04:37;;;;;;;78.83;31.27;;;;;;;;;;5057698;28;20901;-81
2023/05/06 04:07:04;;;;;;;57.03;31.90;;;;;;;;;;5057326;28;20435;-81
2023/05/06 04:09:32;;;;;;;66.10;32.37;;;;;;;;;;5057019;28;20475;-81
2023/05/06 04:12:02;;;;;;;59.00;30.43;;;;;;;;;;5057277;28;20479;-81
2023/05/06 04:14:29;;;;;;;54.73;29.87;;;;;;;;;;5057242;28;20454;-80
2023/05/06 04:16:57;;;;;;;52.07;32.70;;;;;;;;;;5057042;28;20420;-81
2023/05/06 04:19:25;;;;;;;55.00;31.90;;;;;;;;;;5055854;28;20528;-80
2023/05/06 04:21:53;;;;;;;44.83;28.40;;;;;;;;;;5056255;28;20441;-81
2023/05/06 04:24:20;;;;;;;55.57;29.53;;;;;;;;;;5059097;28;20433;-80
2023/05/06 04:26:47;;;;;;;54.20;30.43;;;;;;;;;;5057678;28;20451;-81
2023/05/06 04:29:14;;;;;;;51.73;33.03;;;;;;;;;;5058255;28;20461;-81
2023/05/06 04:31:41;;;;;;;54.97;32.33;;;;;;;;;;5057726;28;20516;-82
2023/05/06 04:34:10;;;;;;;62.67;33.47;;;;;;;;;;5058168;28;20442;-81
2023/05/06 04:36:37;;;;;;;61.60;31.90;;;;;;;;;;5056787;28;20449;-82
2023/05/06 04:39:05;;;;;;;79.37;32.90;;;;;;;;;;5057348;28;20479;-82
2023/05/06 04:41:32;;;;;;;47.17;31.70;;;;;;;;;;5057984;28;20454;-81
2023/05/06 04:44:00;;;;;;;55.30;32.83;;;;;;;;;;5057755;28;20453;-82
2023/05/06 04:46:27;;;;;;;45.70;33.30;;;;;;;;;;5057760;28;20454;-81
2023/05/06 04:48:55;;;;;;;60.60;32.17;;;;;;;;;;5058095;28;20458;-83
2023/05/06 04:51:24;;;;;;;58.80;35.10;;;;;;;;;;5058566;28;20809;-82
2023/05/06 04:53:51;;;;;;;78.97;34.37;;;;;;;;;;5058761;28;20549;-82
2023/05/06 04:56:18;;;;;;;55.17;33.57;;;;;;;;;;5058146;28;20795;-82
2023/05/06 04:58:45;;;;;;;46.97;31.00;;;;;;;;;;5058204;28;20528;-81
2023/05/06 05:01:12;;;;;;;68.77;31.03;;;;;;;;;;5058789;28;20454;-82
2023/05/06 05:03:39;;;;;;;44.87;29.97;;;;;;;;;;5057950;28;20475;-81
2023/05/06 05:06:06;;;;;;;41.23;31.00;;;;;;;;;;5058314;28;20450;-82
2023/05/06 05:08:35;;;;;;;55.23;33.23;;;;;;;;;;5057943;28;20474;-80
2023/05/06 05:11:02;;;;;;;88.23;31.97;;;;;;;;;;5058069;28;20425;-82
2023/05/06 05:13:29;;;;;;;45.77;30.37;;;;;;;;;;5057702;28;20454;-82
2023/05/06 05:15:56;;;;;;;78.70;33.23;;;;;;;;;;5057941;28;20455;-82
2023/05/06 05:18:23;;;;;;;55.63;32.20;;;;;;;;;;5057419;28;20443;-82
2023/05/06 05:20:50;;;;;;;35.87;30.50;;;;;;;;;;5057836;28;20468;-82
2023/05/06 05:23:17;;;;;;;76.37;31.80;;;;;;;;;;5057767;28;20605;-82
2023/05/06 05:25:45;;;;;;;48.17;31.90;;;;;;;;;;5065451;28;20809;-83
2023/05/06 05:28:12;;;;;;;101.80;32.97;;;;;;;;;;5078888;28;20453;-81
2023/05/06 05:30:39;;;;;;;75.60;32.70;;;;;;;;;;5077591;28;20505;-82
2023/05/06 05:33:06;;;;;;;68.80;53.30;;;;;;;;;;5078353;28;20493;-82
2023/05/06 05:35:33;;;;;;;56.77;33.80;;;;;;;;;;5078138;28;20482;-82
2023/05/06 05:38:00;;;;;;;47.97;31.80;;;;;;;;;;5078510;28;20421;-82
2023/05/06 05:40:27;;;;;;;59.13;34.67;;;;;;;;;;5077966;28;20460;-82
2023/05/06 05:42:56;;;;;;;79.13;33.87;;;;;;;;;;5078579;28;20441;-82
2023/05/06 05:45:23;;;;;;;75.23;34.00;;;;;;;;;;5078762;28;20442;-82
2023/05/06 05:47:50;;;;;;;60.40;32.30;;;;;;;;;;5080193;28;21010;-83
2023/05/06 05:50:17;;;;;;;50.20;32.00;;;;;;;;;;5083095;28;20485;-83
2023/05/06 05:52:44;;;;;;;41.73;30.30;;;;;;;;;;5082619;28;20464;-83
2023/05/06 05:55:11;;;;;;;40.77;31.80;;;;;;;;;;5082207;28;20838;-82
2023/05/06 05:57:38;;;;;;;52.40;30.70;;;;;;;;;;5081777;28;20428;-82
2023/05/06 06:00:08;;;;;;;53.03;33.40;;;;;;;;;;5080736;28;20460;-82
2023/05/06 06:02:35;;;;;;;33.90;26.90;;;;;;;;;;5082183;28;20445;-82
2023/05/06 06:05:02;;;;;;;69.60;35.13;;;;;;;;;;5082498;28;20485;-82
2023/05/06 06:07:29;;;;;;;51.23;29.43;;;;;;;;;;5084113;28;20458;-81
2023/05/06 06:09:56;;;;;;;70.57;29.77;;;;;;;;;;5083837;28;20467;-82
2023/05/06 06:12:23;;;;;;;34.47;28.30;;;;;;;;;;5083257;28;20489;-82
2023/05/06 06:14:50;;;;;;;30.57;27.40;;;;;;;;;;5083730;28;20424;-83
2023/05/06 06:17:19;;;;;;;31.90;27.40;;;;;;;;;;5081896;28;20400;-82
2023/05/06 06:19:46;;;;;;;36.10;27.40;;;;;;;;;;5082923;28;20436;-82
2023/05/06 06:22:13;;;;;;;31.67;28.30;;;;;;;;;;5085334;28;20525;-80
2023/05/06 06:24:40;;;;;;;32.43;29.13;;;;;;;;;;5086728;28;20428;-82
2023/05/06 06:27:07;;;;;;;30.40;27.53;;;;;;;;;;5084721;28;20503;-81
2023/05/06 06:29:34;;;;;;;33.60;30.20;;;;;;;;;;5086089;28;20964;-82
2023/05/06 06:32:03;;;;;;;32.33;28.90;;;;;;;;;;5085641;28;20498;-83
2023/05/06 06:34:31;;;;;;;33.13;29.83;;;;;;;;;;5085340;28;20499;-82
2023/05/06 06:36:58;;;;;;;31.53;28.63;;;;;;;;;;5084716;28;20437;-82
2023/05/06 06:39:25;;;;;;;29.43;26.60;;;;;;;;;;5084670;28;20444;-82
2023/05/06 06:41:52;;;;;;;29.40;26.30;;;;;;;;;;5083968;28;20462;-82
2023/05/06 06:44:19;;;;;;;28.97;26.57;;;;;;;;;;5084232;28;20499;-82
2023/05/06 06:46:46;;;;;;;30.10;27.30;;;;;;;;;;5083369;28;20432;-82
2023/05/06 06:49:13;;;;;;;27.63;25.53;;;;;;;;;;5083047;28;20853;-82
2023/05/06 06:51:41;;;;;;;27.63;25.13;;;;;;;;;;5081931;28;20444;-81
2023/05/06 06:54:08;;;;;;;29.47;26.40;;;;;;;;;;5083048;28;20489;-82
2023/05/06 06:56:35;;;;;;;27.83;25.80;;;;;;;;;;5082385;28;20507;-82
2023/05/06 06:59:02;;;;;;;31.17;28.30;;;;;;;;;;5081572;28;20496;-83
2023/05/06 07:01:29;;;;;;;29.97;27.43;;;;;;;;;;5080733;28;20450;-83
2023/05/06 07:03:57;;;;;;;33.07;29.67;;;;;;;;;;5080636;28;20504;-81
2023/05/06 07:06:24;;;;;;;28.70;26.10;;;;;;;;;;5080481;28;20932;-82
2023/05/06 07:08:52;;;;;;;31.20;28.13;;;;;;;;;;5080595;28;20948;-84
2023/05/06 07:11:19;;;;;;;30.97;28.27;;;;;;;;;;5078196;28;20466;-78
2023/05/06 07:13:46;;;;;;;31.03;28.37;;;;;;;;;;5075483;28;20886;-77
2023/05/06 07:16:13;;;;;;;32.53;29.60;;;;;;;;;;5074308;28;20516;-77
2023/05/06 07:18:42;;;;;;;31.60;28.53;;;;;;;;;;5075274;28;20446;-77
2023/05/06 07:21:09;;;;;;;30.83;28.17;;;;;;;;;;5075615;28;20474;-77
2023/05/06 07:23:36;;;;;;;28.80;26.50;;;;;;;;;;5075280;28;20441;-77
2023/05/06 07:26:04;;;;;;;29.03;26.63;;;;;;;;;;5074613;28;20503;-77
2023/05/06 07:28:31;;;;;;;28.03;25.73;;;;;;;;;;5074995;28;20807;-76
2023/05/06 07:30:58;;;;;;;32.33;29.37;;;;;;;;;;5074197;28;20834;-77
2023/05/06 07:33:25;;;;;;;33.63;30.60;;;;;;;;;;5074371;28;20478;-76
2023/05/06 07:35:53;;;;;;;29.47;26.97;;;;;;;;;;5073837;28;20481;-77
2023/05/06 07:38:21;;;;;;;31.37;28.33;;;;;;;;;;5074651;28;20420;-76
2023/05/06 07:40:48;;;;;;;31.50;28.73;;;;;;;;;;5074290;28;20492;-76
2023/05/06 07:43:17;;;;;;;29.73;27.33;;;;;;;;;;5074238;28;20432;-77
2023/05/06 07:45:44;;;;;;;30.20;27.47;;;;;;;;;;5054499;28;20433;-76
2023/05/06 07:48:11;;;;;;;30.70;28.30;;;;;;;;;;5073511;28;20456;-77
2023/05/06 07:50:38;;;;;;;31.17;28.30;;;;;;;;;;5074236;28;20444;-76
2023/05/06 07:53:05;;;;;;;31.93;29.17;;;;;;;;;;5073991;28;20456;-77
2023/05/06 07:55:32;;;;;;;29.63;27.03;;;;;;;;;;5073972;28;20438;-77
2023/05/06 07:57:59;;;;;;;28.80;26.50;;;;;;;;;;5074541;28;20450;-76
2023/05/06 08:00:27;;;;;;;31.30;28.47;;;;;;;;;;5073664;28;20499;-76
2023/05/06 08:02:54;;;;;;;29.30;26.83;;;;;;;;;;5072848;28;20978;-76
2023/05/06 08:05:21;;;;;;;26.40;24.40;;;;;;;;;;5074014;28;20921;-76
2023/05/06 08:07:49;;;;;;;28.27;25.97;;;;;;;;;;5072222;28;20830;-77
2023/05/06 08:10:16;;;;;;;27.97;25.70;;;;;;;;;;5073746;28;20445;-77
2023/05/06 08:12:43;;;;;;;28.93;26.67;;;;;;;;;;5073771;28;21171;-77
2023/05/06 08:15:11;;;;;;;27.63;25.63;;;;;;;;;;5074514;28;20463;-77
2023/05/06 08:17:39;;;;;;;27.70;25.40;;;;;;;;;;5073488;28;20428;-77
2023/05/06 08:20:07;;;;;;;27.97;25.67;;;;;;;;;;5073959;28;20940;-77
2023/05/06 08:22:34;;;;;;;28.03;26.03;;;;;;;;;;5075030;28;20424;-79
2023/05/06 08:25:01;;;;;;;27.27;25.20;;;;;;;;;;5074529;28;20942;-76
2023/05/06 08:27:28;;;;;;;26.70;24.60;;;;;;;;;;5073208;28;20416;-76
2023/05/06 08:29:55;;;;;;;27.27;25.00;;;;;;;;;;5073836;28;20448;-76
2023/05/06 08:32:22;;;;;;;27.50;25.40;;;;;;;;;;5073002;28;20489;-78
2023/05/06 08:34:50;;;;;;;27.63;25.67;;;;;;;;;;5073282;28;20448;-76
2023/05/06 08:37:17;;;;;;;27.03;25.03;;;;;;;;;;5073113;28;20424;-80
2023/05/06 08:39:44;;;;;;;27.50;25.40;;;;;;;;;;5072595;28;20849;-76
2023/05/06 08:42:11;;;;;;;26.70;24.60;;;;;;;;;;5072643;28;20903;-76
2023/05/06 08:44:39;;;;;;;27.93;25.63;;;;;;;;;;5072585;28;20937;-76
2023/05/06 08:47:06;;;;;;;26.93;24.87;;;;;;;;;;5073275;28;20456;-77
2023/05/06 08:49:33;;;;;;;28.17;26.10;;;;;;;;;;5073145;28;20511;-77
2023/05/06 08:52:04;;;;;;;26.40;24.53;;;;;;;;;;5075253;28;20426;-78
2023/05/06 08:54:34;;;;;;;25.93;24.13;;;;;;;;;;5090923;28;20896;-77
2023/05/06 08:57:03;;;;;;;27.37;25.10;;;;;;;;;;5078343;28;20467;-81
2023/05/06 08:59:31;;;;;;;26.93;24.90;;;;;;;;;;5080676;28;20467;-80
2023/05/06 09:01:58;;;;;;;26.70;24.73;;;;;;;;;;5080353;28;20450;-79
2023/05/06 09:04:26;;;;;;;27.47;25.37;;;;;;;;;;5079119;28;20537;-79
2023/05/06 09:06:53;;;;;;;28.17;26.17;;;;;;;;;;5078172;28;20420;-81
2023/05/06 09:09:21;;;;;;;28.40;26.20;;;;;;;;;;5077991;28;20452;-81
2023/05/06 09:11:52;;;;;;;26.43;24.63;;;;;;;;;;5078696;28;20463;-79
2023/05/06 09:14:19;;;;;;;27.50;25.60;;;;;;;;;;5078095;28;20441;-78
2023/05/06 09:16:48;;;;;;;26.73;24.67;;;;;;;;;;5077096;28;20485;-79
2023/05/06 09:19:15;;;;;;;26.87;25.07;;;;;;;;;;5077302;28;20506;-79
2023/05/06 09:21:43;;;;;;;27.37;25.27;;;;;;;;;;5077039;28;20856;-79
2023/05/06 09:24:11;;;;;;;26.40;24.50;;;;;;;;;;5077106;28;20544;-79
2023/05/06 09:26:40;;;;;;;25.03;23.33;;;;;;;;;;5077398;28;20470;-80
2023/05/06 09:29:07;;;;;;;24.80;23.17;;;;;;;;;;5076737;28;20516;-81
2023/05/06 09:31:34;;;;;;;24.57;22.97;;;;;;;;;;5077696;28;20482;-78
2023/05/06 09:34:01;;;;;;;25.03;23.37;;;;;;;;;;5077008;28;20482;-79
2023/05/06 09:36:28;;;;;;;24.87;22.67;;;;;;;;;;5076743;28;20471;-78
2023/05/06 09:38:56;;;;;;;23.10;21.70;;;;;;;;;;5077377;28;20444;-79
2023/05/06 09:41:25;;;;;;;24.17;22.63;;;;;;;;;;5077594;28;20444;-79
2023/05/06 09:43:53;;;;;;;22.30;21.00;;;;;;;;;;5077122;28;20443;-78
2023/05/06 09:46:21;;;;;;;23.40;22.10;;;;;;;;;;5076714;28;20429;-79
2023/05/06 09:48:50;;;;;;;23.00;21.70;;;;;;;;;;5076970;28;20560;-81
2023/05/06 09:51:17;;;;;;;23.13;21.70;;;;;;;;;;5076593;28;20827;-78
2023/05/06 09:53:44;;;;;;;22.10;20.60;;;;;;;;;;5076805;28;20875;-77
2023/05/06 09:56:12;;;;;;;20.30;19.30;;;;;;;;;;5075428;28;20515;-78
2023/05/06 09:58:39;;;;;;;21.73;20.33;;;;;;;;;;5077029;28;20454;-78
2023/05/06 10:01:08;;;;;;;23.23;21.60;;;;;;;;;;5072163;28;20463;-79
2023/05/06 10:03:35;;;;;;;22.90;21.50;;;;;;;;;;5059762;28;20442;-81
2023/05/06 10:06:03;;;;;;;22.33;21.03;;;;;;;;;;5067894;28;20495;-78
2023/05/06 10:08:30;;;;;;;22.30;20.90;;;;;;;;;;5074926;28;20500;-78
2023/05/06 10:10:57;;;;;;;21.77;20.47;;;;;;;;;;5076732;28;20472;-79
2023/05/06 10:13:24;;;;;;;21.77;20.40;;;;;;;;;;5077542;28;20461;-78
2023/05/06 10:15:51;;;;;;;20.23;19.13;;;;;;;;;;5077798;28;20436;-81
2023/05/06 10:18:20;;;;;;;20.80;19.60;;;;;;;;;;5078289;28;20927;-78
2023/05/06 10:20:48;;;;;;;20.53;19.33;;;;;;;;;;5076784;28;20482;-81
2023/05/06 10:23:20;;;;;;;21.97;20.33;;;;;;;;;;5078152;28;20424;-80
2023/05/06 10:25:50;;;;;;;20.90;19.60;;;;;;;;;;5078246;28;20412;-80
2023/05/06 10:28:19;;;;;;;19.60;18.50;;;;;;;;;;5079643;28;20450;-81
2023/05/06 10:30:46;;;;;;;20.67;19.37;;;;;;;;;;5080252;28;20448;-81
2023/05/06 10:33:14;;;;;;;20.70;19.30;;;;;;;;;;5082292;28;20457;-79
2023/05/06 10:35:45;;;;;;;20.80;19.50;;;;;;;;;;5082334;28;20461;-80
2023/05/06 10:38:15;;;;;;;20.23;19.07;;;;;;;;;;5083079;28;20429;-79
2023/05/06 10:40:42;;;;;;;20.50;19.40;;;;;;;;;;5082067;28;20461;-79
2023/05/06 10:43:20;;;;;;;20.13;19.03;;;;;;;;;;5081878;28;20442;-80
2023/05/06 10:45:59;;;;;;;19.10;18.00;;;;;;;;;;5081525;28;21008;-79
2023/05/06 10:48:27;;;;;;;19.27;18.13;;;;;;;;;;5082131;28;20447;-79
2023/05/06 10:51:09;;;;;;;20.20;19.00;;;;;;;;;;5081962;28;20459;-78
2023/05/06 10:53:54;;;;;;;20.23;19.03;;;;;;;;;;5081343;28;20481;-78
2023/05/06 10:56:22;;;;;;;20.00;18.80;;;;;;;;;;5080789;28;20734;-84
2023/05/06 10:58:49;;;;;;;20.90;19.60;;;;;;;;;;5078262;28;20431;-78
2023/05/06 11:01:16;;;;;;;19.57;18.57;;;;;;;;;;5076988;28;20418;-78
2023/05/06 11:03:44;;;;;;;21.00;19.80;;;;;;;;;;5076592;28;20476;-77
2023/05/06 11:06:11;;;;;;;22.00;20.70;;;;;;;;;;5075219;28;20821;-77
2023/05/06 11:08:38;;;;;;;21.33;20.03;;;;;;;;;;5075328;28;20421;-77
2023/05/06 11:11:20;;;;;;;21.70;20.50;;;;;;;;;;5075067;28;20442;-78
2023/05/06 11:13:52;;;;;;;21.37;20.27;;;;;;;;;;5075267;28;20458;-78
2023/05/06 11:16:35;;;;;;;21.23;20.13;;;;;;;;;;5080215;28;20497;-78
2023/05/06 11:19:02;;;;;;;22.03;20.73;;;;;;;;;;5080611;28;20472;-79
2023/05/06 11:21:39;;;;;;;23.87;22.57;;;;;;;;;;5080353;28;20429;-79
2023/05/06 11:24:13;;;;;;;23.33;21.80;;;;;;;;;;5080449;28;20396;-78
2023/05/06 11:26:44;;;;;;;22.50;21.20;;;;;;;;;;5076105;28;20418;-76
2023/05/06 11:29:12;;;;;;;23.57;22.23;;;;;;;;;;5075040;28;20446;-77
2023/05/06 11:31:40;;;;;;;22.53;21.23;;;;;;;;;;5074258;28;20423;-77
2023/05/06 11:34:08;;;;;;;23.17;21.87;;;;;;;;;;5077899;28;20467;-77
2023/05/06 11:36:36;;;;;;;23.87;22.50;;;;;;;;;;5075266;28;20590;-77
2023/05/06 11:39:07;;;;;;;23.77;22.37;;;;;;;;;;5075616;28;20506;-77
2023/05/06 11:41:34;;;;;;;22.97;21.67;;;;;;;;;;5075008;28;20406;-76
2023/05/06 11:44:01;;;;;;;24.13;22.60;;;;;;;;;;5078441;28;21076;-79
2023/05/06 11:46:30;;;;;;;22.43;21.13;;;;;;;;;;5080228;28;20450;-86
2023/05/06 11:48:57;;;;;;;23.77;22.47;;;;;;;;;;5077200;28;20483;-85
2023/05/06 11:51:24;;;;;;;23.67;22.27;;;;;;;;;;5065742;28;20447;-84
2023/05/06 11:53:51;;;;;;;23.33;21.93;;;;;;;;;;5064664;28;20479;-83
2023/05/06 11:56:18;;;;;;;23.10;21.80;;;;;;;;;;5063701;28;20980;-85
2023/05/06 11:58:46;;;;;;;23.03;21.80;;;;;;;;;;5062449;28;20930;-88
2023/05/06 12:01:13;;;;;;;23.10;21.77;;;;;;;;;;5060017;28;20825;-84
2023/05/06 12:03:42;;;;;;;23.83;22.20;;;;;;;;;;5060104;28;20471;-84
2023/05/06 12:06:09;;;;;;;24.50;23.17;;;;;;;;;;5058854;28;20904;-84
2023/05/06 12:08:37;;;;;;;24.10;22.53;;;;;;;;;;5058807;28;20940;-83
2023/05/06 12:11:06;;;;;;;24.47;23.17;;;;;;;;;;5057182;28;20910;-84
2023/05/06 12:13:35;;;;;;;23.80;22.40;;;;;;;;;;5058049;28;20455;-85
2023/05/06 12:16:03;;;;;;;24.00;22.50;;;;;;;;;;5058979;28;20479;-86
2023/05/06 12:18:30;;;;;;;24.03;22.50;;;;;;;;;;5058487;28;20432;-84
2023/05/06 12:21:02;;;;;;;24.93;23.20;;;;;;;;;;5057905;28;20461;-84
2023/05/06 12:23:29;;;;;;;24.10;22.60;;;;;;;;;;5057124;28;20519;-85
2023/05/06 12:26:02;;;;;;;24.30;22.73;;;;;;;;;;5057794;28;20454;-84
2023/05/06 12:28:31;;;;;;;24.03;22.73;;;;;;;;;;5058215;28;20511;-86
2023/05/06 12:30:58;;;;;;;24.63;23.23;;;;;;;;;;5057283;28;20473;-78
2023/05/06 12:33:25;;;;;;;26.17;24.57;;;;;;;;;;5055233;28;20432;-78
2023/05/06 12:35:53;;;;;;;25.90;24.10;;;;;;;;;;5054986;28;20497;-78
2023/05/06 12:38:22;;;;;;;24.70;23.20;;;;;;;;;;5055380;28;20458;-77
2023/05/06 12:40:53;;;;;;;24.37;22.97;;;;;;;;;;5054928;28;20468;-78
2023/05/06 12:43:28;;;;;;;23.60;22.10;;;;;;;;;;5055827;28;20476;-78
2023/05/06 12:46:03;;;;;;;23.80;22.40;;;;;;;;;;5055581;28;21051;-78
2023/05/06 12:48:30;;;;;;;24.17;22.77;;;;;;;;;;5057115;28;20414;-81
2023/05/06 12:50:57;;;;;;;23.30;22.00;;;;;;;;;;5057711;28;20448;-83
2023/05/06 12:53:35;;;;;;;24.33;22.93;;;;;;;;;;5057938;28;20971;-83
2023/05/06 12:56:02;;;;;;;24.50;23.10;;;;;;;;;;5057159;28;20451;-83
2023/05/06 12:58:29;;;;;;;23.77;22.43;;;;;;;;;;5057641;28;20432;-84
2023/05/06 13:00:56;;;;;;;24.53;23.17;;;;;;;;;;5057211;28;20453;-85
2023/05/06 13:03:23;;;;;;;25.20;23.70;;;;;;;;;;5059583;28;20425;-84
2023/05/06 13:05:50;;;;;;;25.10;23.13;;;;;;;;;;5057335;28;20829;-87
2023/05/06 13:08:17;;;;;;;24.00;22.70;;;;;;;;;;5058334;28;20424;-86
2023/05/06 13:10:46;;;;;;;24.73;23.13;;;;;;;;;;5055044;28;20465;-77
2023/05/06 13:13:13;;;;;;;23.03;21.60;;;;;;;;;;5054584;28;20455;-77
2023/05/06 13:15:40;;;;;;;22.97;21.67;;;;;;;;;;5053144;28;21049;-77
2023/05/06 13:18:07;;;;;;;24.27;22.77;;;;;;;;;;5057642;28;20797;-78
2023/05/06 13:20:34;;;;;;;22.60;21.00;;;;;;;;;;5058311;28;20475;-78
2023/05/06 13:23:01;;;;;;;23.90;22.47;;;;;;;;;;5059600;28;20425;-80
2023/05/06 13:25:29;;;;;;;23.27;22.00;;;;;;;;;;5060637;28;20488;-84
2023/05/06 13:27:57;;;;;;;23.57;22.17;;;;;;;;;;5056646;28;20474;-78
2023/05/06 13:30:24;;;;;;;24.10;22.40;;;;;;;;;;5056260;28;20456;-76
2023/05/06 13:32:51;;;;;;;24.00;22.60;;;;;;;;;;5054088;28;20428;-78
2023/05/06 13:35:18;;;;;;;22.87;21.57;;;;;;;;;;5056015;28;20524;-78
2023/05/06 13:37:45;;;;;;;24.20;22.70;;;;;;;;;;5052378;28;20482;-76
2023/05/06 13:40:13;;;;;;;24.30;22.80;;;;;;;;;;5053188;28;20445;-76
2023/05/06 13:42:40;;;;;;;23.13;21.73;;;;;;;;;;5052746;28;20446;-76
2023/05/06 13:45:09;;;;;;;22.77;21.53;;;;;;;;;;5051966;28;20462;-76
2023/05/06 13:47:36;;;;;;;23.90;22.40;;;;;;;;;;5052422;28;20454;-76
2023/05/06 13:50:04;;;;;;;24.00;22.50;;;;;;;;;;5054201;28;20990;-77
2023/05/06 13:52:31;;;;;;;25.17;23.57;;;;;;;;;;5053458;28;20561;-77
2023/05/06 13:54:58;;;;;;;22.90;21.60;;;;;;;;;;5053772;28;20503;-76
2023/05/06 13:57:25;;;;;;;23.83;22.33;;;;;;;;;;5055339;28;20457;-78
2023/05/06 13:59:52;;;;;;;23.10;21.70;;;;;;;;;;5057725;28;20476;-79
2023/05/06 14:02:20;;;;;;;23.70;22.30;;;;;;;;;;5053743;28;20465;-76
2023/05/06 14:04:47;;;;;;;23.23;21.90;;;;;;;;;;5052395;28;20420;-77
2023/05/06 14:07:14;;;;;;;23.13;21.80;;;;;;;;;;5051176;28;20869;-77
2023/05/06 14:09:41;;;;;;;23.50;22.10;;;;;;;;;;5056177;28;20474;-76
2023/05/06 14:12:08;;;;;;;24.40;23.00;;;;;;;;;;5056343;28;20471;-77
2023/05/06 14:14:35;;;;;;;27.83;26.07;;;;;;;;;;5055845;28;20520;-77
2023/05/06 14:17:02;;;;;;;24.90;23.50;;;;;;;;;;5054442;28;20477;-78
2023/05/06 14:19:31;;;;;;;24.73;23.07;;;;;;;;;;5055718;28;20478;-76